Time;durP1;ratioP1;P1;durP2;ratioP2;P2;SDS_P1;SDS_P2;PMS_P1;PMS_P2;Temp;Humidity;BMP_temperature;BMP_pressure;BME280_temperature;BME280_humidity;BME280_pressure;Samples;Min_cycle;Max_cycle;Signal;HPM_P1;HPM_P2
2021/10/01 00:02:24;;;;;;;5.22;2.05;;;11.60;73.80;;;;;;5055858;28;20021;-37
2021/10/01 00:04:50;;;;;;;8.90;2.20;;;11.60;74.00;;;;;;5055544;28;20143;-37
2021/10/01 00:07:17;;;;;;;6.60;1.70;;;11.60;74.10;;;;;;5055572;28;20055;-38
2021/10/01 00:09:43;;;;;;;11.75;3.13;;;11.60;73.80;;;;;;5055351;28;20065;-37
2021/10/01 00:12:09;;;;;;;8.10;1.55;;;11.60;74.00;;;;;;5055673;28;20090;-37
2021/10/01 00:14:35;;;;;;;3.55;1.38;;;11.60;73.70;;;;;;5055339;28;20082;-37
2021/10/01 00:17:02;;;;;;;6.60;1.33;;;11.40;74.10;;;;;;5055296;28;20025;-37
2021/10/01 00:19:28;;;;;;;3.50;1.38;;;11.30;74.70;;;;;;5055050;28;20082;-37
2021/10/01 00:21:53;;;;;;;7.25;1.35;;;11.30;75.00;;;;;;5055124;28;20036;-37
2021/10/01 00:24:19;;;;;;;4.47;1.50;;;11.30;75.20;;;;;;5055585;28;20096;-37
2021/10/01 00:26:45;;;;;;;7.05;1.83;;;11.40;74.80;;;;;;5053814;28;20025;-37
2021/10/01 00:29:11;;;;;;;7.53;1.20;;;11.40;74.50;;;;;;5055444;28;20025;-37
2021/10/01 00:31:37;;;;;;;4.43;1.25;;;11.30;74.80;;;;;;5055371;28;20022;-37
2021/10/01 00:34:04;;;;;;;5.50;1.67;;;11.30;75.30;;;;;;5055085;28;20025;-38
2021/10/01 00:36:30;;;;;;;5.65;2.00;;;11.30;75.00;;;;;;5055250;28;20117;-36
2021/10/01 00:38:58;;;;;;;3.33;1.25;;;11.30;75.20;;;;;;5054837;28;20029;-36
2021/10/01 00:41:24;;;;;;;7.00;1.73;;;11.30;75.00;;;;;;5054853;28;20473;-36
2021/10/01 00:43:50;;;;;;;3.35;0.98;;;11.20;75.40;;;;;;5054689;28;20028;-36
2021/10/01 00:46:16;;;;;;;4.60;1.17;;;11.10;75.70;;;;;;5055017;28;20025;-37
2021/10/01 00:48:42;;;;;;;3.17;1.13;;;11.00;76.20;;;;;;5054689;28;20060;-36
2021/10/01 00:51:08;;;;;;;5.70;1.20;;;11.10;76.00;;;;;;5054262;28;20033;-36
2021/10/01 00:53:34;;;;;;;6.68;1.40;;;11.20;75.30;;;;;;5052638;28;20102;-36
2021/10/01 00:56:00;;;;;;;3.38;1.08;;;11.20;75.20;;;;;;5054487;28;20072;-37
2021/10/01 00:58:26;;;;;;;3.08;1.10;;;11.10;75.80;;;;;;5054305;28;20060;-37
2021/10/01 01:01:10;;;;;;;6.47;2.40;;;10.90;76.30;;;;;;5054188;28;20031;-37
2021/10/01 01:03:48;;;;;;;7.55;1.52;;;10.90;76.20;;;;;;5052896;28;20074;-37
2021/10/01 01:06:34;;;;;;;5.40;1.10;;;11.00;75.90;;;;;;5054024;28;20031;-38
2021/10/01 01:09:19;;;;;;;3.00;1.35;;;11.00;75.90;;;;;;5053863;28;20162;-37
2021/10/01 01:12:26;;;;;;;4.95;1.23;;;11.00;75.80;;;;;;5054375;28;20377;-37
2021/10/01 01:15:17;;;;;;;5.38;1.35;;;11.00;75.80;;;;;;5053689;28;20073;-38
2021/10/01 01:17:48;;;;;;;6.78;1.20;;;10.90;75.80;;;;;;5054319;28;20086;-37
2021/10/01 01:20:55;;;;;;;7.32;1.40;;;11.00;75.50;;;;;;5054084;28;20031;-37
2021/10/01 01:23:42;;;;;;;6.03;1.35;;;11.00;75.40;;;;;;5053106;28;20373;-37
2021/10/01 01:26:10;;;;;;;2.90;1.10;;;11.00;75.30;;;;;;5053878;28;20032;-37
2021/10/01 01:29:04;;;;;;;7.57;1.95;;;10.90;75.50;;;;;;5053715;28;20029;-36
2021/10/01 01:31:56;;;;;;;1.75;1.15;;;11.00;75.40;;;;;;5053931;28;20068;-36
2021/10/01 01:34:43;;;;;;;3.40;0.90;;;11.10;75.10;;;;;;5054008;28;20029;-37
2021/10/01 01:37:19;;;;;;;3.05;0.93;;;11.00;75.20;;;;;;5054176;28;20035;-36
2021/10/01 01:39:47;;;;;;;7.80;2.90;;;11.10;74.90;;;;;;5053573;28;20029;-37
2021/10/01 01:42:14;;;;;;;1.90;0.85;;;11.00;75.00;;;;;;5053953;28;20100;-37
2021/10/01 01:44:40;;;;;;;3.05;0.88;;;11.10;74.90;;;;;;5052568;28;20017;-37
2021/10/01 01:47:06;;;;;;;4.75;1.00;;;11.00;74.90;;;;;;5053845;28;20025;-37
2021/10/01 01:49:33;;;;;;;4.15;1.15;;;11.00;75.00;;;;;;5054043;28;20025;-37
2021/10/01 01:51:59;;;;;;;4.55;1.50;;;10.90;75.20;;;;;;5053999;28;20079;-37
2021/10/01 01:54:26;;;;;;;3.50;1.27;;;11.00;75.00;;;;;;5053432;28;20064;-36
2021/10/01 01:56:53;;;;;;;5.53;1.02;;;11.10;74.70;;;;;;5052812;28;20033;-37
2021/10/01 01:59:21;;;;;;;8.75;1.85;;;11.00;75.00;;;;;;5053453;28;20495;-37
2021/10/01 02:01:48;;;;;;;8.00;1.15;;;11.00;74.80;;;;;;5053904;28;20024;-37
2021/10/01 02:04:17;;;;;;;3.95;1.20;;;11.00;75.00;;;;;;5053252;28;20100;-37
2021/10/01 02:06:45;;;;;;;3.92;1.02;;;10.90;75.10;;;;;;5053406;28;20028;-37
2021/10/01 02:09:12;;;;;;;4.35;1.15;;;11.00;74.80;;;;;;5053220;28;20033;-37
2021/10/01 02:11:40;;;;;;;3.63;1.23;;;11.00;74.70;;;;;;5053224;28;20021;-38
2021/10/01 02:14:07;;;;;;;2.72;1.20;;;11.00;74.70;;;;;;5052155;28;20056;-36
2021/10/01 02:16:33;;;;;;;4.20;1.10;;;10.90;75.20;;;;;;5053403;28;20381;-36
2021/10/01 02:19:01;;;;;;;4.18;1.00;;;10.80;75.40;;;;;;5053219;28;20369;-37
2021/10/01 02:21:30;;;;;;;3.65;0.90;;;10.80;75.60;;;;;;5053370;28;20110;-37
2021/10/01 02:23:56;;;;;;;4.78;1.23;;;10.80;75.70;;;;;;5051726;28;20047;-37
2021/10/01 02:26:39;;;;;;;2.70;1.17;;;10.80;75.60;;;;;;5052982;28;20025;-36
2021/10/01 02:29:16;;;;;;;10.40;2.80;;;10.80;75.30;;;;;;5051734;28;20051;-37
2021/10/01 02:31:57;;;;;;;3.35;1.67;;;10.80;75.30;;;;;;5053216;28;20072;-38
2021/10/01 02:34:34;;;;;;;2.08;0.90;;;10.80;75.50;;;;;;5052931;28;20106;-37
2021/10/01 02:37:00;;;;;;;2.63;1.00;;;10.80;75.50;;;;;;5053396;28;20040;-36
2021/10/01 02:39:26;;;;;;;3.53;1.25;;;10.80;75.50;;;;;;5053023;28;20112;-36
2021/10/01 02:41:52;;;;;;;11.43;1.15;;;10.80;75.20;;;;;;5053100;28;20122;-38
2021/10/01 02:44:17;;;;;;;3.83;1.02;;;10.90;75.00;;;;;;5053781;28;20132;-37
2021/10/01 02:46:43;;;;;;;1.25;0.95;;;10.80;75.00;;;;;;5051482;28;20051;-37
2021/10/01 02:49:09;;;;;;;2.20;0.98;;;10.90;74.60;;;;;;5052883;28;20032;-38
2021/10/01 02:51:42;;;;;;;5.47;1.45;;;10.90;74.70;;;;;;5051535;28;20524;-36
2021/10/01 02:54:13;;;;;;;4.35;1.10;;;10.90;74.90;;;;;;5051888;28;20457;-37
2021/10/01 02:57:07;;;;;;;5.50;1.83;;;10.80;75.00;;;;;;5052629;28;20056;-37
2021/10/01 02:59:39;;;;;;;3.20;0.82;;;10.80;75.20;;;;;;5052395;28;20492;-37
2021/10/01 03:02:05;;;;;;;6.93;1.98;;;10.90;74.90;;;;;;5052876;28;20376;-38
2021/10/01 03:04:33;;;;;;;1.67;0.90;;;10.90;74.70;;;;;;5052857;28;20031;-38
2021/10/01 03:07:02;;;;;;;9.35;1.10;;;10.90;74.80;;;;;;5052555;28;20021;-37
2021/10/01 03:09:29;;;;;;;8.60;1.13;;;10.80;75.10;;;;;;5052636;28;20025;-37
2021/10/01 03:11:58;;;;;;;3.28;1.30;;;10.80;75.00;;;;;;5052511;28;20025;-36
2021/10/01 03:14:24;;;;;;;3.60;1.35;;;10.80;75.30;;;;;;5052441;28;20032;-36
2021/10/01 03:16:51;;;;;;;5.47;1.77;;;10.80;75.30;;;;;;5055875;28;20025;-37
2021/10/01 03:19:22;;;;;;;9.10;1.23;;;10.80;75.20;;;;;;5056524;28;20025;-37
2021/10/01 03:21:57;;;;;;;8.15;1.45;;;10.80;75.10;;;;;;5057076;28;20025;-36
2021/10/01 03:24:23;;;;;;;2.55;1.65;;;10.80;75.00;;;;;;5056474;28;20021;-37
2021/10/01 03:26:51;;;;;;;4.10;0.90;;;10.80;75.20;;;;;;5056236;28;20025;-36
2021/10/01 03:29:18;;;;;;;3.25;1.30;;;10.80;75.20;;;;;;5056140;28;20037;-36
2021/10/01 03:31:46;;;;;;;2.60;0.80;;;10.80;75.20;;;;;;5056475;28;20112;-37
2021/10/01 03:34:11;;;;;;;8.32;2.70;;;10.70;75.20;;;;;;5056221;28;20028;-37
2021/10/01 03:36:38;;;;;;;1.17;0.93;;;10.70;75.10;;;;;;5056202;28;20047;-37
2021/10/01 03:39:04;;;;;;;3.45;0.90;;;10.80;75.10;;;;;;5056040;28;20029;-37
2021/10/01 03:41:30;;;;;;;5.55;1.00;;;10.80;74.90;;;;;;5055950;28;20025;-37
2021/10/01 03:43:56;;;;;;;3.60;1.08;;;10.90;74.30;;;;;;5055932;28;20039;-37
2021/10/01 03:46:22;;;;;;;6.00;2.33;;;11.00;74.00;;;;;;5055531;28;20414;-37
2021/10/01 03:48:48;;;;;;;1.95;0.90;;;10.90;74.30;;;;;;5055221;28;20107;-37
2021/10/01 03:51:14;;;;;;;4.35;1.30;;;10.90;74.10;;;;;;5055505;28;20091;-37
2021/10/01 03:53:40;;;;;;;2.75;1.00;;;10.80;74.20;;;;;;5055457;28;20033;-37
2021/10/01 03:56:12;;;;;;;8.63;1.33;;;10.90;74.30;;;;;;5055033;28;20052;-37
2021/10/01 03:58:38;;;;;;;5.85;1.20;;;10.90;74.00;;;;;;5055031;28;20580;-37
2021/10/01 04:01:03;;;;;;;3.45;1.23;;;11.00;73.90;;;;;;5055190;28;20109;-37
2021/10/01 04:03:29;;;;;;;5.03;1.85;;;10.90;73.70;;;;;;5054879;28;20032;-37
2021/10/01 04:05:54;;;;;;;1.58;0.93;;;11.10;73.50;;;;;;5055590;28;20522;-37
2021/10/01 04:08:20;;;;;;;1.92;0.65;;;11.00;73.60;;;;;;5055174;28;20025;-37
2021/10/01 04:10:47;;;;;;;3.25;1.00;;;10.90;73.90;;;;;;5054868;28;20025;-37
2021/10/01 04:13:13;;;;;;;4.72;1.30;;;10.80;73.90;;;;;;5055244;28;20031;-37
2021/10/01 04:15:38;;;;;;;6.57;1.42;;;11.00;73.60;;;;;;5054886;28;20108;-37
2021/10/01 04:18:04;;;;;;;5.97;1.23;;;11.00;73.50;;;;;;5053461;28;20477;-37
2021/10/01 04:20:34;;;;;;;7.10;1.27;;;10.80;74.10;;;;;;5054980;28;20441;-37
2021/10/01 04:22:59;;;;;;;2.10;1.08;;;10.80;74.10;;;;;;5055045;28;20025;-37
2021/10/01 04:25:25;;;;;;;5.22;1.23;;;10.80;74.00;;;;;;5055211;28;20422;-37
2021/10/01 04:27:51;;;;;;;7.88;1.75;;;10.90;73.70;;;;;;5053119;28;20060;-37
2021/10/01 04:30:17;;;;;;;2.38;0.90;;;11.00;73.50;;;;;;5054518;28;20080;-37
2021/10/01 04:32:49;;;;;;;4.78;1.17;;;11.00;73.70;;;;;;5054541;28;20079;-37
2021/10/01 04:35:15;;;;;;;8.18;1.23;;;10.90;74.10;;;;;;5055122;28;20028;-37
2021/10/01 04:37:41;;;;;;;6.72;1.80;;;10.80;74.40;;;;;;5054844;28;20446;-37
2021/10/01 04:40:07;;;;;;;3.85;0.90;;;10.80;74.70;;;;;;5054948;28;20066;-37
2021/10/01 04:42:33;;;;;;;3.95;1.52;;;10.80;74.40;;;;;;5054666;28;20049;-37
2021/10/01 04:44:59;;;;;;;2.53;1.33;;;10.90;73.70;;;;;;5054990;28;20043;-37
2021/10/01 04:47:24;;;;;;;5.90;1.05;;;10.80;74.00;;;;;;5054774;28;20326;-37
2021/10/01 04:49:50;;;;;;;8.30;1.30;;;10.80;74.50;;;;;;5054838;28;20044;-36
2021/10/01 04:52:16;;;;;;;8.63;1.40;;;10.80;74.60;;;;;;5054923;28;20056;-37
2021/10/01 04:54:41;;;;;;;4.35;1.60;;;10.80;74.60;;;;;;5054125;28;20045;-37
2021/10/01 04:57:08;;;;;;;5.68;1.55;;;10.80;74.70;;;;;;5054617;28;20021;-38
2021/10/01 04:59:33;;;;;;;2.53;1.30;;;10.90;74.20;;;;;;5054656;28;20493;-36
2021/10/01 05:01:59;;;;;;;8.80;1.85;;;10.90;74.10;;;;;;5052967;28;20117;-37
2021/10/01 05:04:25;;;;;;;2.40;1.20;;;11.10;73.60;;;;;;5054425;28;20017;-38
2021/10/01 05:06:50;;;;;;;4.10;1.48;;;11.10;73.30;;;;;;5054389;28;20021;-37
2021/10/01 05:09:16;;;;;;;3.20;1.08;;;11.10;73.30;;;;;;5054311;28;20029;-38
2021/10/01 05:11:42;;;;;;;3.72;1.15;;;11.10;73.20;;;;;;5054431;28;20041;-38
2021/10/01 05:14:07;;;;;;;1.83;1.10;;;11.20;73.10;;;;;;5054173;28;20029;-38
2021/10/01 05:16:33;;;;;;;9.07;2.35;;;11.30;72.80;;;;;;5054204;28;20025;-38
2021/10/01 05:18:59;;;;;;;2.75;1.13;;;11.30;72.50;;;;;;5053911;28;20064;-37
2021/10/01 05:21:24;;;;;;;3.47;0.90;;;11.40;71.80;;;;;;5054119;28;20060;-37
2021/10/01 05:23:50;;;;;;;2.42;0.90;;;11.50;71.20;;;;;;5054867;28;20033;-36
2021/10/01 05:26:16;;;;;;;2.10;0.88;;;11.40;71.80;;;;;;5054203;28;20025;-36
2021/10/01 05:28:41;;;;;;;3.40;1.10;;;11.30;72.30;;;;;;5053872;28;20389;-37
2021/10/01 05:31:07;;;;;;;4.50;1.05;;;11.40;71.90;;;;;;5053684;28;20025;-37
2021/10/01 05:33:33;;;;;;;5.65;1.05;;;11.50;71.50;;;;;;5053554;28;20071;-36
2021/10/01 05:35:58;;;;;;;1.70;1.05;;;11.60;71.10;;;;;;5053300;28;20036;-37
2021/10/01 05:38:25;;;;;;;8.07;1.63;;;11.70;70.70;;;;;;5052786;28;20163;-37
2021/10/01 05:40:51;;;;;;;4.85;1.48;;;11.80;70.20;;;;;;5053324;28;20025;-37
2021/10/01 05:43:24;;;;;;;6.07;1.45;;;11.80;70.50;;;;;;5053667;28;20021;-37
2021/10/01 05:45:51;;;;;;;6.60;2.08;;;11.80;70.50;;;;;;5053316;28;20035;-37
2021/10/01 05:48:17;;;;;;;6.53;1.13;;;11.80;70.40;;;;;;5053469;28;20053;-37
2021/10/01 05:50:44;;;;;;;1.73;1.02;;;11.90;70.00;;;;;;5053398;28;20443;-38
2021/10/01 05:53:25;;;;;;;2.72;1.13;;;12.00;69.90;;;;;;5053454;28;20465;-38
2021/10/01 05:55:50;;;;;;;;;;;11.90;70.20;;;;;;5053726;28;20413;-37
2021/10/01 05:58:17;;;;;;;5.78;0.90;;;12.00;69.80;;;;;;5052656;28;19908;-38
2021/10/01 06:00:43;;;;;;;2.88;1.33;;;12.10;69.50;;;;;;5052789;28;20081;-37
2021/10/01 06:03:09;;;;;;;4.93;0.90;;;12.10;69.60;;;;;;5052912;28;20017;-37
2021/10/01 06:05:34;;;;;;;5.07;1.20;;;12.10;69.60;;;;;;5052785;28;20025;-37
2021/10/01 06:08:00;;;;;;;4.07;1.02;;;12.10;69.50;;;;;;5052989;28;20346;-36
2021/10/01 06:10:26;;;;;;;3.47;1.17;;;12.00;69.80;;;;;;5052809;28;20466;-36
2021/10/01 06:12:51;;;;;;;3.95;1.00;;;12.10;69.10;;;;;;5052712;28;20032;-36
2021/10/01 06:15:18;;;;;;;2.78;1.35;;;12.10;69.20;;;;;;5053006;28;20056;-37
2021/10/01 06:17:43;;;;;;;5.43;1.50;;;12.00;69.60;;;;;;5052995;28;20024;-37
2021/10/01 06:20:09;;;;;;;8.80;1.45;;;12.10;69.30;;;;;;5052686;28;20040;-37
2021/10/01 06:22:35;;;;;;;9.32;1.13;;;12.20;69.10;;;;;;5052608;28;20025;-37
2021/10/01 06:25:01;;;;;;;3.00;1.10;;;12.20;68.80;;;;;;5052444;28;20044;-36
2021/10/01 06:27:26;;;;;;;4.93;1.58;;;12.20;69.20;;;;;;5051308;28;20077;-37
2021/10/01 06:29:54;;;;;;;3.20;0.93;;;12.30;68.90;;;;;;5052574;28;20029;-37
2021/10/01 06:32:20;;;;;;;4.90;2.00;;;12.30;68.70;;;;;;5052322;28;20025;-45
2021/10/01 06:34:46;;;;;;;5.55;1.05;;;12.30;69.10;;;;;;5052728;28;20040;-36
2021/10/01 06:37:12;;;;;;;2.00;0.85;;;12.30;68.60;;;;;;5052151;28;20100;-38
2021/10/01 06:39:38;;;;;;;7.30;1.30;;;12.40;68.00;;;;;;5052328;28;20485;-37
2021/10/01 06:42:04;;;;;;;4.97;1.10;;;12.40;68.40;;;;;;5051139;28;20025;-36
2021/10/01 06:44:32;;;;;;;3.63;0.90;;;12.40;68.40;;;;;;5053150;28;20429;-40
2021/10/01 06:49:37;;;;;;;3.22;1.80;;;12.50;67.60;;;;;;5052033;28;20389;-38
2021/10/01 08:19:37;;;;;;;3.25;0.88;;;14.80;60.50;;;;;;5054599;28;20027;-37
2021/10/01 08:22:03;;;;;;;5.15;1.10;;;14.90;60.10;;;;;;5054208;28;20104;-37
2021/10/01 08:24:31;;;;;;;8.63;1.38;;;15.40;58.20;;;;;;5054333;28;20384;-36
2021/10/01 08:26:58;;;;;;;5.05;1.40;;;15.50;57.80;;;;;;5054410;28;20449;-37
2021/10/01 08:29:24;;;;;;;4.28;1.50;;;15.70;57.20;;;;;;5054397;28;20025;-37
2021/10/01 08:31:50;;;;;;;2.63;0.70;;;16.20;55.90;;;;;;5054281;28;20100;-37
2021/10/01 08:34:17;;;;;;;3.88;1.00;;;16.30;55.30;;;;;;5054221;28;20138;-36
2021/10/01 08:36:44;;;;;;;6.43;1.73;;;16.20;55.30;;;;;;5054455;28;20029;-37
2021/10/01 08:39:10;;;;;;;2.72;0.80;;;16.50;54.30;;;;;;5054223;28;20036;-37
2021/10/01 08:41:37;;;;;;;6.22;2.22;;;16.30;55.80;;;;;;5054396;28;20025;-37
2021/10/01 08:44:05;;;;;;;2.00;0.80;;;16.20;56.50;;;;;;5054289;28;20086;-37
2021/10/01 08:46:31;;;;;;;3.10;0.95;;;16.20;56.00;;;;;;5054410;28;20358;-38
2021/10/01 08:49:00;;;;;;;2.55;1.23;;;16.40;54.50;;;;;;5054333;28;20039;-40
2021/10/01 08:51:27;;;;;;;3.95;1.20;;;16.80;53.70;;;;;;5054587;28;20051;-39
2021/10/01 08:53:54;;;;;;;3.28;1.40;;;17.50;51.80;;;;;;5053923;28;20040;-37
2021/10/01 08:56:22;;;;;;;5.03;1.40;;;17.00;53.40;;;;;;5053692;28;20500;-37
2021/10/01 08:58:48;;;;;;;6.28;1.00;;;16.90;54.20;;;;;;5053899;28;20426;-38
2021/10/01 09:01:16;;;;;;;7.50;1.67;;;17.30;52.60;;;;;;5054335;28;20052;-38
2021/10/01 09:03:43;;;;;;;2.83;1.00;;;17.30;53.20;;;;;;5053869;28;20025;-38
2021/10/01 09:06:09;;;;;;;7.82;1.40;;;17.70;52.00;;;;;;5054018;28;20368;-40
2021/10/01 09:08:51;;;;;;;11.13;1.42;;;18.20;50.60;;;;;;5053071;28;20031;-38
2021/10/01 09:11:18;;;;;;;2.72;1.13;;;18.40;50.50;;;;;;5053562;28;20021;-38
2021/10/01 09:13:43;;;;;;;1.02;0.80;;;17.80;50.20;;;;;;5052634;28;20354;-38
2021/10/01 09:16:12;;;;;;;9.80;3.58;;;17.50;51.30;;;;;;5053421;28;20078;-39
2021/10/01 09:18:39;;;;;;;9.68;2.17;;;18.00;51.10;;;;;;5053126;28;20017;-38
2021/10/01 09:21:24;;;;;;;6.82;1.40;;;18.70;49.00;;;;;;5053512;28;20092;-38
2021/10/01 09:24:01;;;;;;;5.90;1.10;;;18.60;48.70;;;;;;5053437;28;20017;-37
2021/10/01 09:26:29;;;;;;;1.60;0.73;;;18.70;48.00;;;;;;5053398;28;20373;-38
2021/10/01 09:28:57;;;;;;;1.90;0.95;;;18.50;49.20;;;;;;5053304;28;20021;-38
2021/10/01 09:31:32;;;;;;;2.33;1.27;;;19.00;47.50;;;;;;5053261;28;20032;-37
2021/10/01 09:33:58;;;;;;;5.00;2.33;;;18.40;49.00;;;;;;5052847;28;20029;-37
2021/10/01 09:36:26;;;;;;;3.70;1.30;;;18.30;49.50;;;;;;5053010;28;20393;-39
2021/10/01 09:38:53;;;;;;;2.47;1.42;;;18.60;48.50;;;;;;5052907;28;20029;-40
2021/10/01 09:41:25;;;;;;;2.95;0.98;;;18.80;48.60;;;;;;5053171;28;20154;-38
2021/10/01 09:44:10;;;;;;;6.18;1.10;;;18.30;49.20;;;;;;5053192;28;20029;-38
2021/10/01 09:46:43;;;;;;;3.90;0.95;;;18.70;48.80;;;;;;5053224;28;20422;-37
2021/10/01 09:49:10;;;;;;;4.40;1.13;;;19.10;47.50;;;;;;5052992;28;20028;-39
2021/10/01 09:51:37;;;;;;;3.45;0.77;;;19.30;46.80;;;;;;5052746;28;20025;-38
2021/10/01 09:54:14;;;;;;;5.10;1.45;;;18.30;49.40;;;;;;5052771;28;20033;-38
2021/10/01 09:56:41;;;;;;;11.95;1.75;;;18.30;49.50;;;;;;5051305;28;20156;-38
2021/10/01 09:59:16;;;;;;;3.08;1.50;;;18.50;49.40;;;;;;5051048;28;20543;-36
2021/10/01 10:02:00;;;;;;;5.85;1.33;;;18.40;49.40;;;;;;5052546;28;20032;-37
2021/10/01 10:04:28;;;;;;;3.13;0.98;;;19.30;46.90;;;;;;5052921;28;20040;-38
2021/10/01 10:06:54;;;;;;;3.25;1.10;;;19.40;46.60;;;;;;5052927;28;20076;-37
2021/10/01 10:09:36;;;;;;;3.80;1.05;;;19.80;45.70;;;;;;5053511;28;20079;-37
2021/10/01 10:12:02;;;;;;;5.68;1.27;;;19.70;45.70;;;;;;5051682;28;20021;-39
2021/10/01 10:14:34;;;;;;;8.35;3.42;;;18.90;47.10;;;;;;5052866;28;20025;-38
2021/10/01 10:17:00;;;;;;;1.60;0.98;;;19.00;47.90;;;;;;5052617;28;20025;-39
2021/10/01 10:19:30;;;;;;;3.70;1.23;;;18.80;48.90;;;;;;5052305;28;20025;-39
2021/10/01 10:21:58;;;;;;;5.07;1.30;;;18.10;49.60;;;;;;5051358;28;20488;-39
2021/10/01 10:24:24;;;;;;;6.43;1.77;;;18.00;50.70;;;;;;5052011;28;20067;-38
2021/10/01 10:26:50;;;;;;;2.15;1.02;;;18.10;50.30;;;;;;5052380;28;20025;-38
2021/10/01 10:29:16;;;;;;;5.88;1.63;;;17.70;51.10;;;;;;5050884;28;20032;-38
2021/10/01 10:31:46;;;;;;;2.92;1.20;;;17.70;52.10;;;;;;5052325;28;20033;-38
2021/10/01 10:34:19;;;;;;;5.78;1.30;;;17.90;51.60;;;;;;5052579;28;20029;-39
2021/10/01 10:36:47;;;;;;;8.48;1.00;;;18.20;51.40;;;;;;5052417;28;20075;-37
2021/10/01 10:39:14;;;;;;;4.68;1.02;;;18.10;51.80;;;;;;5051909;28;20025;-37
2021/10/01 10:41:45;;;;;;;5.28;1.02;;;18.00;50.60;;;;;;5050649;28;20022;-38
2021/10/01 10:44:13;;;;;;;4.70;1.23;;;18.00;50.80;;;;;;5052334;28;20052;-38
2021/10/01 10:46:40;;;;;;;5.80;1.80;;;17.90;50.70;;;;;;5051522;28;20028;-38
2021/10/01 10:51:59;;;;;;;6.93;2.20;;;18.10;51.20;;;;;;5051688;28;20037;-37
2021/10/01 10:54:38;;;;;;;4.57;1.33;;;18.40;49.80;;;;;;5051324;28;20384;-37
2021/10/01 10:57:16;;;;;;;5.53;1.42;;;18.30;50.20;;;;;;5033972;28;20059;-39
2021/10/01 10:59:49;;;;;;;1.88;1.00;;;18.40;49.30;;;;;;5052118;28;20452;-38
2021/10/01 11:02:28;;;;;;;6.20;1.23;;;18.20;49.50;;;;;;5049954;28;20044;-38
2021/10/01 11:05:27;;;;;;;4.45;1.90;;;18.50;49.30;;;;;;5050653;28;20025;-38
2021/10/01 11:08:02;;;;;;;4.50;1.17;;;19.00;47.80;;;;;;5051793;28;20033;-37
2021/10/01 11:10:41;;;;;;;9.70;1.70;;;19.30;46.60;;;;;;5051795;28;20036;-40
2021/10/01 11:13:19;;;;;;;2.63;0.93;;;19.40;45.60;;;;;;5051734;28;20384;-47
2021/10/01 11:16:07;;;;;;;6.63;1.33;;;19.30;46.90;;;;;;5050176;28;20028;-38
2021/10/01 11:18:33;;;;;;;4.65;1.10;;;20.30;44.50;;;;;;5051956;28;20143;-38
2021/10/01 11:20:59;;;;;;;7.03;1.25;;;21.00;43.60;;;;;;5051409;28;20543;-37
2021/10/01 11:23:25;;;;;;;10.80;2.33;;;21.30;43.20;;;;;;5052228;28;20017;-38
2021/10/01 11:25:51;;;;;;;3.85;1.13;;;21.40;42.20;;;;;;5051853;28;20069;-37
2021/10/01 11:28:18;;;;;;;3.17;0.85;;;21.30;42.50;;;;;;5051492;28;20035;-38
2021/10/01 11:30:53;;;;;;;3.28;1.50;;;21.40;42.50;;;;;;5051824;28;20079;-36
2021/10/01 11:33:19;;;;;;;5.38;1.10;;;21.80;41.50;;;;;;5052115;28;20021;-37
2021/10/01 11:35:52;;;;;;;5.68;1.77;;;20.30;43.60;;;;;;5052287;28;20068;-39
2021/10/01 11:38:37;;;;;;;7.75;1.35;;;19.90;45.40;;;;;;5055871;28;20036;-38
2021/10/01 11:41:05;;;;;;;6.60;1.48;;;20.20;44.20;;;;;;5055344;28;20400;-39
2021/10/01 11:43:32;;;;;;;4.47;1.13;;;20.70;42.40;;;;;;5054257;28;20492;-39
2021/10/01 11:45:57;;;;;;;6.88;1.40;;;20.80;42.30;;;;;;5055578;28;20028;-37
2021/10/01 11:48:33;;;;;;;3.13;1.20;;;20.60;43.40;;;;;;5055318;28;20021;-38
2021/10/01 11:50:59;;;;;;;7.00;1.20;;;21.30;42.70;;;;;;5053759;28;20389;-37
2021/10/01 11:53:27;;;;;;;3.17;1.10;;;21.70;41.00;;;;;;5054915;28;20021;-37
2021/10/01 11:55:59;;;;;;;4.50;1.00;;;21.00;43.00;;;;;;5054866;28;20530;-38
2021/10/01 11:58:28;;;;;;;4.93;1.23;;;20.30;44.10;;;;;;5054797;28;20381;-37
2021/10/01 12:00:55;;;;;;;5.78;1.98;;;19.30;46.60;;;;;;5053470;28;20036;-37
2021/10/01 12:03:21;;;;;;;3.65;1.00;;;19.40;46.20;;;;;;5055688;28;20025;-37
2021/10/01 12:05:52;;;;;;;5.80;1.13;;;19.10;46.60;;;;;;5053983;28;20412;-38
2021/10/01 12:08:22;;;;;;;5.15;1.08;;;19.00;46.80;;;;;;5055006;28;20469;-38
2021/10/01 12:10:51;;;;;;;2.03;1.00;;;18.90;47.20;;;;;;5055422;28;20033;-37
2021/10/01 12:13:23;;;;;;;5.10;1.90;;;19.10;46.60;;;;;;5055407;28;20075;-37
2021/10/01 12:15:54;;;;;;;11.63;1.77;;;19.10;47.30;;;;;;5054394;28;20056;-38
2021/10/01 12:18:30;;;;;;;5.50;1.25;;;19.00;47.60;;;;;;5053632;28;20381;-38
2021/10/01 12:20:58;;;;;;;11.02;7.50;;;19.00;47.70;;;;;;5054239;28;20041;-38
2021/10/01 12:23:35;;;;;;;2.03;1.20;;;19.30;47.60;;;;;;5054828;28;20029;-38
2021/10/01 12:26:32;;;;;;;6.53;2.90;;;19.40;47.30;;;;;;5053250;28;20083;-36
2021/10/01 12:29:05;;;;;;;5.63;2.63;;;19.20;47.00;;;;;;5054720;28;20473;-37
2021/10/01 12:31:37;;;;;;;5.82;1.35;;;19.10;47.60;;;;;;5053329;28;20027;-37
2021/10/01 12:34:05;;;;;;;1.35;0.88;;;19.20;47.40;;;;;;5054745;28;20037;-37
2021/10/01 12:36:31;;;;;;;4.18;1.55;;;19.20;46.60;;;;;;5054561;28;20032;-36
2021/10/01 12:38:58;;;;;;;5.25;3.10;;;19.10;47.40;;;;;;5054542;28;20025;-37
2021/10/01 12:41:25;;;;;;;7.50;0.90;;;19.20;47.70;;;;;;5053028;28;20025;-38
2021/10/01 12:44:01;;;;;;;3.65;1.10;;;19.40;46.60;;;;;;5054579;28;20021;-37
2021/10/01 12:46:41;;;;;;;3.60;1.48;;;19.30;47.30;;;;;;5053280;28;20381;-37
2021/10/01 12:49:21;;;;;;;;;;;19.20;47.30;;;;;;5053831;28;20108;-38
2021/10/01 12:52:05;;;;;;;6.85;1.20;;;19.30;47.50;;;;;;5054664;28;19905;-37
2021/10/01 12:54:33;;;;;;;4.72;1.85;;;19.50;46.40;;;;;;5054340;28;20102;-37
2021/10/01 12:57:08;;;;;;;4.30;0.98;;;19.60;46.40;;;;;;5054699;28;20021;-37
2021/10/01 13:00:03;;;;;;;2.72;0.80;;;19.30;46.90;;;;;;5054317;28;20032;-39
2021/10/01 13:02:34;;;;;;;2.40;0.88;;;19.40;47.20;;;;;;5053348;28;20040;-38
2021/10/01 13:05:26;;;;;;;7.90;1.25;;;19.50;47.40;;;;;;5052430;28;20025;-38
2021/10/01 13:07:57;;;;;;;4.95;0.90;;;19.30;46.90;;;;;;5054036;28;20076;-37
2021/10/01 13:10:29;;;;;;;1.88;0.90;;;19.20;46.90;;;;;;5054169;28;20036;-37
2021/10/01 13:13:03;;;;;;;3.72;0.95;;;19.10;46.60;;;;;;5054665;28;20029;-37
2021/10/01 13:15:43;;;;;;;2.50;0.98;;;19.10;47.60;;;;;;5054019;28;20029;-38
2021/10/01 13:18:10;;;;;;;;;;;19.00;47.80;;;;;;5054588;28;20067;-37
2021/10/01 13:20:39;;;;;;;5.93;1.08;;;18.90;47.90;;;;;;5053248;28;19916;-37
2021/10/01 13:23:11;;;;;;;2.40;0.90;;;18.80;47.60;;;;;;5053795;28;20029;-38
2021/10/01 13:25:52;;;;;;;2.47;1.00;;;19.00;47.20;;;;;;5053611;28;20032;-38
2021/10/01 13:28:20;;;;;;;4.30;1.20;;;18.80;47.30;;;;;;5054049;28;20021;-38
2021/10/01 13:30:47;;;;;;;6.13;0.70;;;19.00;47.40;;;;;;5053639;28;20056;-39
2021/10/01 13:33:14;;;;;;;2.80;1.00;;;18.80;47.40;;;;;;5053620;28;20029;-38
2021/10/01 13:35:40;;;;;;;5.20;1.05;;;18.80;48.20;;;;;;5053818;28;20031;-38
2021/10/01 13:38:08;;;;;;;5.50;1.35;;;19.10;48.20;;;;;;5053812;28;20025;-39
2021/10/01 13:40:35;;;;;;;2.92;1.05;;;19.10;48.00;;;;;;5053684;28;20025;-37
2021/10/01 13:43:01;;;;;;;5.65;1.83;;;18.80;47.90;;;;;;5053450;28;20097;-37
2021/10/01 13:45:27;;;;;;;3.13;0.90;;;19.00;47.50;;;;;;5052932;28;20080;-37
2021/10/01 13:47:53;;;;;;;7.28;1.75;;;19.00;47.50;;;;;;5053119;28;20032;-37
2021/10/01 13:50:19;;;;;;;6.00;1.00;;;18.90;48.30;;;;;;5053528;28;20044;-37
2021/10/01 13:52:45;;;;;;;2.08;1.08;;;19.00;48.00;;;;;;5052693;28;20500;-38
2021/10/01 13:55:12;;;;;;;7.65;1.13;;;18.90;48.10;;;;;;5051267;28;20053;-37
2021/10/01 13:57:39;;;;;;;2.58;0.90;;;19.20;47.80;;;;;;5052636;28;20036;-37
2021/10/01 14:00:07;;;;;;;3.40;1.35;;;19.00;48.00;;;;;;5052244;28;20437;-38
2021/10/01 14:02:35;;;;;;;2.50;1.20;;;18.90;48.00;;;;;;5052837;28;20077;-38
2021/10/01 14:05:03;;;;;;;4.28;0.70;;;19.20;47.40;;;;;;5052942;28;20025;-37
2021/10/01 14:07:28;;;;;;;4.15;1.02;;;19.20;47.00;;;;;;5053175;28;20031;-38
2021/10/01 14:09:54;;;;;;;9.02;1.45;;;19.10;46.80;;;;;;5052800;28;20099;-38
2021/10/01 14:12:20;;;;;;;5.03;1.40;;;18.90;46.20;;;;;;5053108;28;20051;-39
2021/10/01 14:14:46;;;;;;;3.92;0.73;;;18.80;47.00;;;;;;5051328;28;20067;-38
2021/10/01 14:17:11;;;;;;;5.85;0.85;;;19.00;45.90;;;;;;5052426;28;20025;-38
2021/10/01 14:19:37;;;;;;;6.38;1.50;;;18.80;46.20;;;;;;5052410;28;20025;-37
2021/10/01 14:22:03;;;;;;;4.30;1.58;;;18.80;45.60;;;;;;5052382;28;20039;-37
2021/10/01 14:24:28;;;;;;;2.80;1.42;;;19.00;45.20;;;;;;5050975;28;20029;-37
2021/10/01 14:26:54;;;;;;;5.40;1.42;;;18.80;46.00;;;;;;5052552;28;20028;-37
2021/10/01 14:29:20;;;;;;;3.30;0.98;;;19.00;45.90;;;;;;5052189;28;20426;-38
2021/10/01 14:31:45;;;;;;;2.35;1.15;;;19.00;45.70;;;;;;5052132;28;20075;-38
2021/10/01 14:34:11;;;;;;;2.00;1.17;;;19.00;45.70;;;;;;5052794;28;20032;-37